メインページ
METAR-TAF:

METAR-TAF

空港 :

トロント, オンタリオ州, カナダ

トロント・ピアソン国際空港

緯度: 43-40N, 経度: 079-38W, 海抜: 173m

現時点の気象観測

当レポートは37分前の14:00(UTC)に作成
変向風 2kt
気温 0°C
湿度 86%
気圧 1019 hPa
視程: 16.1km
高度13000ftの千切れ雲あり
高度25000ftの千切れ雲あり

METAR: CYYZ 211400Z VRB02KT 10SM BKN130 BKN250 M00/M02 A3009 RMK AC5CI2 SLP198

時間: 09:37 (14:37 UTC)

予報

当レポートは2時間59分前の11:38(UTC)に作成
予報は21日の 12時(UTC)から 22日の 18時(UTC)まで有効
変向風 3kt
視程: 10km
高度1500ftの雲は散在している
高度18000ftの千切れ雲あり
21日の 12時(UTC)から 21日の 23時(UTC)まで一時的に
高度1500ftの千切れ雲あり
21日の 14時(UTC)から 21日の 16時(UTC)まで徐々に
の風 7kt
21日の 2300時(UTC)から
の風 5kt
視程: 10km
高度1500ftの千切れ雲あり
22日の 0200時(UTC)から
の風 4kt
視程: 4.8km
高度500ftの曇り
22日の 0500時(UTC)から
東/北東の風 5kt
視程: 0.8km
高度300ftの
小霧雨, 霧
22日の 1400時(UTC)から
の風 12kt
視程: 0.8km
高度200ftの
雨, 霧

TAF: CYYZ 211138Z 2112/2218 VRB03KT P6SM SCT015 BKN180 TEMPO 2112/2123 BKN015 BECMG 2114/2116 18007KT FM212300 18005KT P6SM BKN015 FM220200 09004KT 3SM BR OVC005 FM220500 07005KT 1/2SM -DZ FG VV003 FM221400 09012KT 1/2SM RA FG VV002 RMK NXT FCST BY 211500Z

4,000以上の空港の気象観測と天気予報(METAR報とTAF報)

利用可能な観測所は地図上に黄色い丸と赤い丸で示す。

丸の上にカーソルを重ねると観測所名を参照できる。

次にクリックすると気象観測と天気予報を参照できる。

マップの切り替え:黒色「×」印の緑ボタンをクリックして拡大、「-」印の緑ボタンをクリックして縮小、緑色の三角印をクリックして隣りの地図に切り替え


METAR-TAF: